Time;durP1;ratioP1;P1;durP2;ratioP2;P2;SDS_P1;SDS_P2;PMS_P1;PMS_P2;Temp;Humidity;BMP_temperature;BMP_pressure;BME280_temperature;BME280_humidity;BME280_pressure;Samples;Min_cycle;Max_cycle;Signal;HPM_P1;HPM_P2
2022/07/14 00:01:02;;;;;;;1.20;1.10;;;22.00;46.70;;;;;;4952155;28;20071;-71
2022/07/14 00:03:28;;;;;;;2.10;0.90;;;21.90;46.80;;;;;;4958349;28;20458;-71
2022/07/14 00:05:54;;;;;;;1.17;1.00;;;21.90;47.10;;;;;;4964392;28;20597;-71
2022/07/14 00:08:19;;;;;;;1.38;0.82;;;21.90;47.20;;;;;;4934368;28;20066;-72
2022/07/14 00:10:45;;;;;;;2.20;1.25;;;21.80;47.30;;;;;;4945677;28;20046;-71
2022/07/14 00:13:10;;;;;;;2.00;0.93;;;21.80;47.40;;;;;;4933056;28;20035;-70
2022/07/14 00:15:36;;;;;;;1.20;0.80;;;21.70;47.60;;;;;;4960154;28;20070;-71
2022/07/14 00:18:02;;;;;;;1.10;1.00;;;21.80;47.80;;;;;;4960152;28;20074;-71
2022/07/14 00:20:28;;;;;;;1.80;1.00;;;21.70;47.90;;;;;;4951147;28;20086;-71
2022/07/14 00:22:56;;;;;;;1.42;1.00;;;21.70;48.20;;;;;;4947540;28;20030;-71
2022/07/14 00:25:22;;;;;;;1.50;0.95;;;21.70;48.20;;;;;;4956671;28;20057;-71
2022/07/14 00:27:48;;;;;;;1.10;0.90;;;21.70;48.40;;;;;;4941966;28;20045;-71
2022/07/14 00:30:13;;;;;;;1.08;1.00;;;21.60;48.50;;;;;;4939542;28;20023;-73
2022/07/14 00:32:39;;;;;;;1.85;0.98;;;21.60;48.60;;;;;;4952666;28;20045;-71
2022/07/14 00:35:05;;;;;;;3.67;0.98;;;21.60;48.80;;;;;;4957392;28;20033;-71
2022/07/14 00:37:30;;;;;;;0.95;0.90;;;21.50;48.80;;;;;;4985677;28;20138;-72
2022/07/14 00:39:56;;;;;;;2.10;0.90;;;21.50;48.90;;;;;;4942178;28;20134;-70
2022/07/14 00:42:47;;;;;;;1.90;1.10;;;21.50;49.00;;;;;;4973320;28;20040;-71
2022/07/14 00:45:14;;;;;;;2.95;1.10;;;21.40;49.70;;;;;;4950602;28;20042;-70
2022/07/14 00:47:39;;;;;;;1.00;0.90;;;21.40;49.30;;;;;;4945939;28;20364;-70
2022/07/14 00:50:06;;;;;;;1.90;1.10;;;21.40;49.50;;;;;;4941331;28;20522;-70
2022/07/14 00:52:32;;;;;;;1.27;1.10;;;21.40;49.50;;;;;;4925450;28;20042;-70
2022/07/14 00:54:57;;;;;;;1.40;1.02;;;21.40;49.70;;;;;;4935754;28;20523;-72
2022/07/14 00:57:23;;;;;;;1.80;1.10;;;21.30;49.80;;;;;;4944889;28;20125;-70
2022/07/14 00:59:49;;;;;;;2.42;0.85;;;21.30;49.90;;;;;;4920419;28;20049;-70
2022/07/14 01:02:15;;;;;;;7.80;1.58;;;21.30;50.20;;;;;;4945901;28;20043;-70
2022/07/14 01:04:41;;;;;;;2.20;1.02;;;21.30;50.30;;;;;;4962895;28;20455;-70
2022/07/14 01:07:06;;;;;;;1.13;1.00;;;21.30;50.40;;;;;;4929254;28;20039;-71
2022/07/14 01:09:32;;;;;;;1.40;1.10;;;21.20;50.40;;;;;;4973668;28;20468;-71
2022/07/14 01:11:58;;;;;;;1.35;0.90;;;21.20;50.60;;;;;;4951518;28;20184;-72
2022/07/14 01:14:23;;;;;;;1.40;0.90;;;21.20;50.70;;;;;;4932112;28;20035;-71
2022/07/14 01:16:55;;;;;;;2.17;1.30;;;21.20;50.80;;;;;;4963707;28;20043;-71
2022/07/14 01:19:21;;;;;;;2.33;1.00;;;21.20;51.10;;;;;;4933532;28;20030;-71
2022/07/14 01:21:49;;;;;;;2.75;0.98;;;21.20;51.00;;;;;;4944257;28;20039;-70
2022/07/14 01:24:14;;;;;;;2.38;1.10;;;21.20;51.20;;;;;;4927843;28;20034;-71
2022/07/14 01:26:40;;;;;;;2.28;0.98;;;21.20;51.30;;;;;;4948703;28;20043;-71
2022/07/14 01:29:06;;;;;;;2.50;1.05;;;21.20;51.40;;;;;;4967475;28;20040;-71
2022/07/14 01:31:32;;;;;;;1.45;1.02;;;21.20;51.40;;;;;;4945839;28;20039;-71
2022/07/14 01:33:57;;;;;;;1.20;0.90;;;21.10;51.40;;;;;;4965887;28;20049;-73
2022/07/14 01:36:24;;;;;;;4.03;1.20;;;21.10;51.60;;;;;;4947061;28;20112;-69
2022/07/14 01:38:52;;;;;;;2.00;0.90;;;21.10;51.60;;;;;;4957561;28;20028;-69
2022/07/14 01:41:18;;;;;;;3.42;0.88;;;21.10;51.60;;;;;;4932918;28;20047;-71
2022/07/14 01:43:43;;;;;;;1.75;0.95;;;21.10;51.70;;;;;;4938930;28;20496;-70
2022/07/14 01:46:09;;;;;;;1.25;1.13;;;21.10;51.70;;;;;;4969578;28;20046;-71
2022/07/14 01:48:35;;;;;;;1.30;0.98;;;21.00;51.80;;;;;;4950336;28;20023;-71
2022/07/14 01:51:00;;;;;;;0.88;0.88;;;21.00;51.90;;;;;;4959014;28;20054;-70
2022/07/14 01:53:26;;;;;;;1.90;1.00;;;21.00;51.90;;;;;;4964963;28;20031;-70
2022/07/14 01:55:51;;;;;;;3.65;1.38;;;21.00;52.00;;;;;;4960003;28;20050;-70
2022/07/14 01:58:17;;;;;;;0.95;0.80;;;21.00;52.00;;;;;;4939876;28;20154;-71
2022/07/14 02:00:42;;;;;;;2.00;1.30;;;21.00;52.10;;;;;;4966552;28;20043;-70
2022/07/14 02:03:08;;;;;;;3.22;0.85;;;21.00;52.20;;;;;;4951899;28;20035;-71
2022/07/14 02:05:33;;;;;;;2.83;1.42;;;21.00;52.30;;;;;;4908084;28;20047;-70
2022/07/14 02:07:59;;;;;;;3.28;1.00;;;20.90;52.40;;;;;;4956130;28;20096;-70
2022/07/14 02:13:08;;;;;;;1.00;0.90;;;20.90;52.50;;;;;;4979218;28;20033;-71
2022/07/14 02:15:34;;;;;;;2.33;1.25;;;20.90;52.60;;;;;;4958143;28;20451;-70
2022/07/14 02:18:00;;;;;;;3.05;1.00;;;20.80;52.50;;;;;;4927823;28;20548;-71
2022/07/14 02:20:25;;;;;;;2.17;1.17;;;20.80;52.60;;;;;;4952641;28;20435;-71
2022/07/14 02:22:51;;;;;;;2.72;1.00;;;20.80;52.70;;;;;;4931734;28;20492;-70
2022/07/14 02:25:16;;;;;;;1.20;1.10;;;20.80;52.70;;;;;;4945411;28;20108;-71
2022/07/14 02:27:42;;;;;;;5.28;1.27;;;20.80;52.80;;;;;;4945130;28;20038;-70
2022/07/14 02:30:08;;;;;;;1.10;0.93;;;20.80;52.90;;;;;;4948393;28;20038;-71
2022/07/14 02:32:33;;;;;;;6.22;1.50;;;20.70;53.00;;;;;;4940541;28;20032;-70
2022/07/14 02:34:59;;;;;;;2.17;1.10;;;20.70;53.00;;;;;;4971375;28;20070;-70
2022/07/14 02:37:24;;;;;;;1.45;1.08;;;20.70;53.10;;;;;;4946884;28;20037;-70
2022/07/14 02:39:50;;;;;;;1.85;1.40;;;20.70;53.10;;;;;;4944608;28;20035;-71
2022/07/14 02:42:16;;;;;;;2.33;1.30;;;20.60;53.20;;;;;;4961442;28;20046;-71
2022/07/14 02:44:41;;;;;;;1.10;0.88;;;20.60;53.30;;;;;;4968118;28;20038;-71
2022/07/14 02:47:07;;;;;;;1.33;1.15;;;20.60;53.40;;;;;;4942883;28;20073;-70
2022/07/14 02:49:32;;;;;;;5.85;1.30;;;20.60;53.40;;;;;;4956357;28;20035;-70
2022/07/14 02:51:58;;;;;;;4.63;1.20;;;20.50;53.40;;;;;;4954400;28;20034;-70
2022/07/14 02:54:24;;;;;;;1.52;0.93;;;20.50;53.60;;;;;;4955859;28;20053;-70
2022/07/14 02:56:49;;;;;;;1.15;1.05;;;20.50;53.60;;;;;;4956729;28;20035;-70
2022/07/14 02:59:15;;;;;;;1.00;0.90;;;20.50;53.70;;;;;;4950532;28;20119;-72
2022/07/14 03:01:41;;;;;;;3.22;0.90;;;20.40;53.70;;;;;;4951379;28;20098;-70
2022/07/14 03:04:06;;;;;;;1.50;1.20;;;20.40;53.90;;;;;;4949768;28;20059;-70
2022/07/14 03:06:32;;;;;;;2.58;1.13;;;20.30;53.90;;;;;;4948215;28;20034;-70
2022/07/14 03:08:57;;;;;;;4.60;1.20;;;20.30;53.90;;;;;;4945155;28;20045;-71
2022/07/14 03:11:23;;;;;;;1.35;1.10;;;20.30;54.00;;;;;;4943053;28;20181;-71
2022/07/14 03:13:49;;;;;;;1.65;1.15;;;20.20;54.10;;;;;;4951009;28;20031;-70
2022/07/14 03:16:15;;;;;;;2.78;1.00;;;20.20;54.10;;;;;;4952813;28;20091;-70
2022/07/14 03:18:40;;;;;;;4.68;1.00;;;20.20;54.20;;;;;;4928359;28;20594;-70
2022/07/14 03:21:07;;;;;;;1.27;1.08;;;20.10;54.30;;;;;;4934335;28;20129;-70
2022/07/14 03:23:38;;;;;;;1.23;1.10;;;20.10;54.30;;;;;;4940635;28;20064;-72
2022/07/14 03:26:04;;;;;;;4.35;1.15;;;20.00;54.50;;;;;;4955714;28;20661;-70
2022/07/14 03:28:29;;;;;;;2.03;0.93;;;20.00;54.60;;;;;;4946750;28;20039;-70
2022/07/14 03:30:58;;;;;;;2.78;1.20;;;20.00;54.70;;;;;;4964358;28;20139;-70
2022/07/14 03:33:24;;;;;;;3.75;1.00;;;19.90;54.80;;;;;;4932231;28;21785;-70
2022/07/14 03:35:50;;;;;;;2.72;1.33;;;19.90;54.90;;;;;;4940162;28;20134;-73
2022/07/14 03:38:16;;;;;;;6.35;1.35;;;19.80;54.90;;;;;;4950047;28;20102;-73
2022/07/14 03:40:41;;;;;;;4.15;1.20;;;19.80;55.10;;;;;;4966852;28;20125;-73
2022/07/14 03:43:07;;;;;;;5.25;1.20;;;19.80;55.20;;;;;;4957808;28;20035;-72
2022/07/14 03:45:33;;;;;;;4.82;1.17;;;19.80;55.30;;;;;;4952658;28;20036;-71
2022/07/14 03:47:58;;;;;;;2.35;1.30;;;19.70;55.50;;;;;;4948392;28;20031;-69
2022/07/14 03:50:24;;;;;;;2.58;1.30;;;19.70;55.40;;;;;;4937769;28;20094;-70
2022/07/14 03:52:50;;;;;;;4.95;1.20;;;19.70;55.50;;;;;;4928766;28;20038;-70
2022/07/14 03:55:15;;;;;;;2.58;1.65;;;19.60;55.50;;;;;;4932559;28;20423;-70
2022/07/14 03:57:41;;;;;;;1.77;1.10;;;19.60;55.70;;;;;;4966328;28;20028;-70
2022/07/14 04:00:10;;;;;;;2.22;1.30;;;19.50;55.80;;;;;;4960582;28;20109;-72
2022/07/14 04:02:35;;;;;;;3.15;1.30;;;19.50;55.90;;;;;;4960557;28;20416;-70
2022/07/14 04:05:01;;;;;;;5.18;1.50;;;19.50;56.10;;;;;;4957186;28;20042;-70
2022/07/14 04:07:28;;;;;;;2.65;1.42;;;19.50;56.20;;;;;;4943823;28;20132;-71
2022/07/14 04:09:54;;;;;;;1.90;1.30;;;19.40;56.30;;;;;;4940412;28;20500;-70
2022/07/14 04:12:19;;;;;;;1.98;1.30;;;19.40;56.40;;;;;;4949011;28;20039;-70
2022/07/14 04:14:45;;;;;;;1.98;1.60;;;19.40;56.50;;;;;;4962585;28;20503;-72
2022/07/14 04:17:10;;;;;;;2.38;1.63;;;19.40;56.50;;;;;;4968454;28;20050;-70
2022/07/14 04:19:36;;;;;;;3.53;1.30;;;19.30;56.60;;;;;;4956112;28;20031;-70
2022/07/14 04:22:01;;;;;;;2.42;1.30;;;19.30;56.60;;;;;;4965939;28;20086;-70
2022/07/14 04:24:27;;;;;;;3.42;1.38;;;19.30;56.80;;;;;;4958238;28;20046;-70
2022/07/14 04:26:52;;;;;;;2.47;1.38;;;19.30;56.80;;;;;;4943589;28;20053;-70
2022/07/14 04:29:18;;;;;;;5.25;1.65;;;19.30;57.60;;;;;;4936541;28;20054;-70
2022/07/14 04:31:43;;;;;;;2.92;1.30;;;19.30;57.10;;;;;;4961746;28;20074;-70
2022/07/14 04:34:10;;;;;;;1.42;1.13;;;19.30;57.20;;;;;;4928613;28;20058;-70
2022/07/14 04:36:36;;;;;;;2.42;1.42;;;19.30;57.20;;;;;;4944084;28;20427;-70
2022/07/14 04:39:01;;;;;;;5.15;1.40;;;19.30;57.20;;;;;;4927727;28;20031;-72
2022/07/14 04:41:27;;;;;;;3.15;1.35;;;19.30;57.30;;;;;;4934374;28;20061;-70
2022/07/14 04:43:52;;;;;;;1.60;1.45;;;19.20;57.30;;;;;;4955611;28;20042;-70
2022/07/14 04:46:18;;;;;;;3.92;1.23;;;19.20;57.40;;;;;;4967726;28;20728;-72
2022/07/14 04:54:12;;;;;;;2.70;1.40;;;19.30;57.60;;;;;;4936771;28;22841;-71
2022/07/14 04:56:37;;;;;;;2.17;1.27;;;19.30;57.70;;;;;;4958330;28;20035;-71
2022/07/14 04:59:03;;;;;;;4.43;1.40;;;19.30;57.90;;;;;;4965393;28;20039;-72
2022/07/14 05:01:28;;;;;;;3.25;1.02;;;19.30;58.00;;;;;;4930554;28;20042;-72
2022/07/14 05:03:54;;;;;;;5.10;1.73;;;19.30;58.00;;;;;;4931799;28;20043;-71
2022/07/14 05:06:20;;;;;;;4.18;1.45;;;19.30;58.20;;;;;;4961747;28;20046;-71
2022/07/14 05:08:46;;;;;;;6.15;1.40;;;19.30;58.40;;;;;;4923224;28;20032;-71
2022/07/14 05:11:11;;;;;;;6.78;1.80;;;19.30;58.50;;;;;;4960273;28;20077;-72
2022/07/14 05:13:37;;;;;;;4.45;1.50;;;19.40;58.70;;;;;;4956603;28;20038;-71
2022/07/14 05:16:03;;;;;;;2.35;1.35;;;19.40;58.70;;;;;;4946992;28;20069;-70
2022/07/14 05:18:29;;;;;;;2.75;1.80;;;19.40;58.80;;;;;;4930734;28;20124;-72
2022/07/14 05:20:55;;;;;;;1.67;1.30;;;19.50;59.00;;;;;;4948395;28;20070;-71
2022/07/14 05:23:20;;;;;;;2.03;1.30;;;19.50;59.00;;;;;;4966717;28;20050;-72
2022/07/14 05:25:46;;;;;;;2.55;1.33;;;19.50;58.90;;;;;;4963327;28;20039;-70
2022/07/14 05:28:11;;;;;;;6.50;1.50;;;19.50;59.00;;;;;;4934490;28;20046;-72
2022/07/14 05:30:37;;;;;;;2.83;1.25;;;19.50;59.10;;;;;;4945596;28;20051;-71
2022/07/14 05:33:02;;;;;;;4.78;1.40;;;19.60;59.30;;;;;;4941823;28;20046;-71
2022/07/14 05:35:28;;;;;;;4.57;1.23;;;19.60;59.30;;;;;;4946357;28;20035;-72
2022/07/14 05:37:54;;;;;;;2.72;1.70;;;19.60;59.30;;;;;;4959321;28;20031;-71
2022/07/14 05:40:19;;;;;;;2.78;1.60;;;19.70;59.20;;;;;;4949879;28;20538;-72
2022/07/14 05:42:45;;;;;;;3.53;1.23;;;19.70;59.30;;;;;;4941202;28;20035;-71
2022/07/14 05:45:10;;;;;;;7.50;1.63;;;19.70;59.30;;;;;;4947282;28;20053;-71
2022/07/14 05:47:36;;;;;;;4.13;1.40;;;19.70;59.20;;;;;;4924363;28;20123;-71
2022/07/14 05:50:02;;;;;;;2.08;1.50;;;19.70;59.10;;;;;;4944132;28;20558;-73
2022/07/14 05:52:30;;;;;;;5.45;1.30;;;19.80;59.10;;;;;;4937519;28;20039;-71
2022/07/14 05:54:57;;;;;;;3.88;1.40;;;19.80;59.00;;;;;;4942067;28;20520;-73
2022/07/14 05:57:23;;;;;;;7.28;1.90;;;19.80;59.00;;;;;;4928626;28;20046;-71
2022/07/14 05:59:48;;;;;;;4.90;1.55;;;19.80;58.90;;;;;;4938380;28;20035;-71
2022/07/14 06:02:14;;;;;;;2.92;1.60;;;19.90;58.90;;;;;;4952221;28;20049;-71
2022/07/14 06:04:39;;;;;;;3.08;1.98;;;19.90;58.90;;;;;;4950718;28;20491;-71
2022/07/14 06:07:06;;;;;;;8.18;2.15;;;19.90;59.00;;;;;;4918321;28;20718;-71
2022/07/14 06:09:35;;;;;;;7.88;1.85;;;19.90;59.10;;;;;;4964248;28;20039;-71
2022/07/14 06:12:01;;;;;;;6.80;1.77;;;20.00;59.20;;;;;;4947962;28;20035;-71
2022/07/14 06:14:26;;;;;;;3.85;1.77;;;20.00;59.10;;;;;;4939991;28;20039;-72
2022/07/14 06:16:52;;;;;;;5.13;1.50;;;20.10;59.30;;;;;;4934610;28;20066;-71
2022/07/14 06:19:17;;;;;;;3.17;1.80;;;20.10;59.30;;;;;;4935985;28;20145;-71
2022/07/14 06:21:43;;;;;;;4.82;1.65;;;20.20;59.40;;;;;;4947381;28;20054;-71
2022/07/14 06:24:08;;;;;;;4.18;1.40;;;20.20;59.30;;;;;;4963081;28;20642;-71
2022/07/14 06:26:34;;;;;;;4.15;1.50;;;20.20;59.50;;;;;;4954479;28;20498;-71
2022/07/14 06:29:00;;;;;;;10.38;2.53;;;20.30;59.50;;;;;;4975453;28;20043;-71
2022/07/14 06:31:26;;;;;;;7.88;1.90;;;20.30;59.40;;;;;;4953283;28;20211;-71
2022/07/14 06:33:51;;;;;;;4.93;1.83;;;20.40;59.50;;;;;;4978256;28;20628;-71
2022/07/14 06:36:17;;;;;;;6.40;1.60;;;20.40;59.50;;;;;;4964459;28;20495;-70
2022/07/14 06:38:43;;;;;;;4.30;1.52;;;20.50;59.50;;;;;;4981199;28;20542;-71
2022/07/14 06:41:08;;;;;;;7.22;1.77;;;20.50;59.50;;;;;;4953625;28;20035;-72
2022/07/14 06:43:34;;;;;;;4.35;1.63;;;20.60;59.40;;;;;;4968742;28;20117;-72
2022/07/14 06:45:59;;;;;;;7.78;1.90;;;20.70;59.40;;;;;;4966132;28;20031;-72
2022/07/14 06:48:25;;;;;;;6.88;1.52;;;20.70;59.20;;;;;;4927682;28;20039;-71
2022/07/14 06:50:50;;;;;;;4.57;1.65;;;20.80;59.20;;;;;;4936996;28;20085;-70
2022/07/14 06:53:16;;;;;;;1.77;1.60;;;20.90;59.10;;;;;;4955040;28;20114;-71
2022/07/14 06:55:42;;;;;;;8.80;2.05;;;21.00;59.00;;;;;;4941164;28;20036;-71
2022/07/14 06:58:07;;;;;;;2.13;1.63;;;21.10;58.90;;;;;;4925697;28;20103;-73
2022/07/14 07:00:33;;;;;;;1.40;1.30;;;21.20;58.80;;;;;;4963736;28;20040;-72
2022/07/14 07:02:58;;;;;;;3.95;1.65;;;21.30;58.70;;;;;;4910802;28;20080;-71
2022/07/14 07:08:07;;;;;;;2.53;1.60;;;21.50;58.60;;;;;;4964878;28;20054;-71
2022/07/14 07:10:40;;;;;;;4.00;1.50;;;21.50;58.40;;;;;;4938426;28;20039;-71
2022/07/14 07:13:06;;;;;;;3.75;1.52;;;21.60;58.20;;;;;;4957430;28;20038;-71
2022/07/14 07:15:32;;;;;;;2.92;1.58;;;21.70;58.10;;;;;;4953749;28;20043;-70
2022/07/14 07:17:59;;;;;;;4.70;1.67;;;21.90;58.00;;;;;;4941576;28;20054;-72
2022/07/14 07:20:24;;;;;;;6.28;1.70;;;22.00;57.80;;;;;;4953774;28;20050;-70
2022/07/14 07:22:50;;;;;;;5.85;1.67;;;22.10;57.60;;;;;;4924589;28;20050;-72
2022/07/14 07:25:15;;;;;;;3.15;1.50;;;22.20;57.30;;;;;;4950913;28;20113;-71
2022/07/14 07:27:41;;;;;;;3.65;1.83;;;22.30;57.10;;;;;;4967128;28;20641;-72
2022/07/14 07:30:08;;;;;;;5.00;1.70;;;22.40;57.00;;;;;;4947993;28;20471;-71
2022/07/14 07:32:34;;;;;;;3.92;1.67;;;22.50;56.80;;;;;;4935317;28;20062;-71
2022/07/14 07:34:59;;;;;;;3.17;1.80;;;22.60;56.60;;;;;;4947837;28;20711;-71
2022/07/14 07:37:25;;;;;;;2.47;1.70;;;22.70;56.40;;;;;;4938892;28;20063;-72
2022/07/14 07:39:50;;;;;;;4.95;1.50;;;22.80;56.20;;;;;;4941271;28;20079;-72
2022/07/14 07:42:16;;;;;;;2.65;1.55;;;23.00;56.10;;;;;;4956000;28;20089;-71
2022/07/14 07:44:41;;;;;;;2.88;2.05;;;23.10;55.90;;;;;;4946191;28;20038;-71
2022/07/14 07:47:07;;;;;;;6.97;1.98;;;23.20;55.70;;;;;;4949345;28;20039;-71
2022/07/14 07:49:32;;;;;;;4.05;1.55;;;23.40;55.50;;;;;;4966573;28;20026;-72
2022/07/14 07:51:59;;;;;;;1.90;1.75;;;23.50;55.20;;;;;;4932273;28;20050;-71
2022/07/14 07:54:25;;;;;;;4.90;1.60;;;23.70;55.00;;;;;;4948492;28;20050;-71
2022/07/14 07:56:50;;;;;;;5.75;1.50;;;23.90;55.40;;;;;;4949115;28;20043;-72
2022/07/14 07:59:16;;;;;;;5.57;2.05;;;24.10;54.40;;;;;;4955673;28;20035;-71
2022/07/14 08:01:41;;;;;;;3.25;1.63;;;24.30;54.10;;;;;;4945225;28;20057;-72
2022/07/14 08:04:07;;;;;;;4.07;1.60;;;24.60;53.70;;;;;;4952496;28;20493;-72
2022/07/14 08:06:33;;;;;;;6.35;1.80;;;24.70;53.30;;;;;;4952842;28;20071;-71
2022/07/14 08:08:59;;;;;;;4.25;1.80;;;24.90;53.00;;;;;;4962539;28;20041;-71
2022/07/14 08:11:24;;;;;;;6.25;1.60;;;25.10;52.70;;;;;;4937294;28;20073;-71
2022/07/14 08:13:50;;;;;;;5.30;1.83;;;25.20;52.30;;;;;;4944601;28;20034;-72
2022/07/14 08:16:15;;;;;;;7.05;1.98;;;25.30;51.90;;;;;;4929276;28;20055;-71
2022/07/14 08:18:41;;;;;;;5.60;1.40;;;25.40;51.80;;;;;;4942235;28;20054;-72
2022/07/14 08:21:06;;;;;;;9.02;1.67;;;25.60;51.50;;;;;;4931486;28;20039;-71
2022/07/14 08:23:33;;;;;;;3.17;1.38;;;25.70;51.30;;;;;;4966800;28;20504;-72
2022/07/14 08:25:58;;;;;;;5.00;1.42;;;25.80;51.80;;;;;;4943126;28;20085;-71
2022/07/14 08:28:24;;;;;;;5.47;1.77;;;26.00;50.80;;;;;;4956589;28;20035;-73
2022/07/14 08:30:49;;;;;;;8.80;1.75;;;26.10;50.50;;;;;;4928457;28;20105;-71
2022/07/14 08:33:15;;;;;;;5.05;1.92;;;26.20;50.30;;;;;;4936616;28;20464;-71
2022/07/14 08:35:40;;;;;;;4.38;1.65;;;26.30;50.10;;;;;;4926572;28;20493;-71
2022/07/14 08:38:06;;;;;;;3.45;1.35;;;26.40;49.90;;;;;;4934041;28;20026;-71
2022/07/14 08:40:36;;;;;;;6.70;1.63;;;26.50;49.70;;;;;;4936037;28;20567;-71
2022/07/14 08:43:01;;;;;;;8.23;1.80;;;26.60;49.40;;;;;;4951057;28;20093;-72
2022/07/14 08:45:27;;;;;;;5.82;1.67;;;26.70;49.20;;;;;;4949757;28;20270;-71
2022/07/14 08:47:53;;;;;;;6.00;1.55;;;26.70;48.90;;;;;;4941565;28;20533;-72
2022/07/14 08:50:20;;;;;;;3.33;1.65;;;26.80;48.70;;;;;;4962820;28;20066;-72
2022/07/14 08:52:46;;;;;;;3.08;1.40;;;26.90;48.50;;;;;;4958469;28;20591;-72
2022/07/14 08:55:13;;;;;;;3.92;1.95;;;27.00;48.30;;;;;;4939285;28;20043;-72
2022/07/14 08:57:40;;;;;;;6.35;1.60;;;27.10;48.00;;;;;;4967215;28;20035;-71
2022/07/14 09:00:10;;;;;;;4.50;1.40;;;27.20;47.80;;;;;;4935730;28;20058;-71
2022/07/14 09:02:37;;;;;;;2.70;1.27;;;27.30;47.70;;;;;;4950493;28;20118;-71
2022/07/14 09:05:03;;;;;;;4.72;1.50;;;27.40;47.50;;;;;;4924446;28;20034;-71
2022/07/14 09:07:31;;;;;;;1.67;1.35;;;27.50;47.40;;;;;;4940556;28;20095;-72
2022/07/14 09:10:03;;;;;;;4.05;1.50;;;27.70;47.20;;;;;;4962595;28;20049;-71
2022/07/14 09:12:32;;;;;;;2.75;1.67;;;27.80;46.80;;;;;;4967295;28;20031;-72
2022/07/14 09:17:52;;;;;;;8.68;2.25;;;28.10;46.50;;;;;;4936537;28;20194;-71
2022/07/14 09:20:18;;;;;;;6.20;1.90;;;28.20;46.00;;;;;;4929061;28;20035;-72
2022/07/14 09:22:44;;;;;;;7.60;1.42;;;28.40;46.20;;;;;;4966675;28;20116;-72
2022/07/14 09:25:15;;;;;;;10.23;1.98;;;28.50;45.90;;;;;;4943067;28;20058;-72
2022/07/14 09:27:40;;;;;;;4.80;1.55;;;28.60;45.50;;;;;;4944622;28;20751;-71
2022/07/14 09:30:10;;;;;;;7.00;1.42;;;28.70;45.30;;;;;;4931837;28;20054;-72
2022/07/14 09:32:48;;;;;;;6.45;1.80;;;28.80;45.20;;;;;;4950396;28;20565;-71
2022/07/14 09:35:15;;;;;;;5.30;1.70;;;28.90;44.80;;;;;;4940438;28;20039;-72
2022/07/14 09:37:41;;;;;;;10.32;1.67;;;29.10;44.60;;;;;;4946050;28;20592;-72
2022/07/14 09:40:10;;;;;;;4.30;1.42;;;29.20;44.30;;;;;;4948076;28;20038;-72
2022/07/14 09:42:57;;;;;;;5.68;1.45;;;29.30;44.00;;;;;;4939885;28;20643;-72
2022/07/14 09:45:45;;;;;;;3.67;1.10;;;29.60;43.40;;;;;;4986282;28;20041;-71
2022/07/14 09:48:17;;;;;;;9.40;1.55;;;29.90;42.90;;;;;;4963753;28;20062;-71
2022/07/14 09:50:50;;;;;;;5.40;1.40;;;30.10;43.00;;;;;;4939948;28;20039;-72
2022/07/14 09:53:20;;;;;;;3.15;1.65;;;30.40;42.70;;;;;;4971830;28;20111;-72
2022/07/14 09:55:52;;;;;;;2.15;1.65;;;30.60;42.40;;;;;;4963219;28;20079;-72
2022/07/14 09:58:19;;;;;;;9.38;1.80;;;30.80;41.60;;;;;;4960127;28;20053;-72
2022/07/14 10:00:56;;;;;;;7.75;1.92;;;31.00;41.70;;;;;;4923821;28;20520;-71
2022/07/14 10:03:22;;;;;;;3.55;1.20;;;31.20;41.20;;;;;;4939382;28;20163;-72
2022/07/14 10:05:48;;;;;;;5.32;1.42;;;31.40;41.20;;;;;;4910541;28;20184;-71
2022/07/14 10:08:14;;;;;;;3.00;1.40;;;31.50;40.90;;;;;;4952047;28;20564;-70
2022/07/14 10:10:39;;;;;;;5.15;1.52;;;31.60;40.60;;;;;;4968929;28;20063;-71
2022/07/14 10:13:05;;;;;;;6.78;2.10;;;31.80;40.60;;;;;;4942699;28;20049;-72
2022/07/14 10:15:31;;;;;;;22.33;2.95;;;31.90;40.30;;;;;;4934687;28;20035;-72
2022/07/14 10:17:56;;;;;;;7.38;2.28;;;31.90;40.00;;;;;;4951126;28;20536;-70
2022/07/14 10:20:22;;;;;;;17.75;3.00;;;32.10;39.90;;;;;;4972615;28;20036;-71
2022/07/14 10:22:48;;;;;;;8.95;2.50;;;32.20;39.70;;;;;;4940171;28;20039;-71
2022/07/14 10:25:13;;;;;;;4.80;1.90;;;32.30;39.50;;;;;;4945293;28;20031;-71
2022/07/14 10:27:42;;;;;;;8.50;2.00;;;32.50;39.20;;;;;;4940969;28;20107;-71
2022/07/14 10:30:08;;;;;;;6.80;2.08;;;32.60;38.90;;;;;;4938290;28;20067;-71
2022/07/14 10:32:40;;;;;;;3.75;1.40;;;32.80;38.70;;;;;;4948845;28;20125;-71
2022/07/14 10:35:27;;;;;;;5.10;1.27;;;33.10;38.50;;;;;;4950439;28;20038;-71
2022/07/14 10:38:05;;;;;;;5.32;1.40;;;33.30;37.60;;;;;;4970491;28;20129;-72
2022/07/14 10:40:56;;;;;;;2.08;1.55;;;33.60;37.90;;;;;;4936752;28;20067;-71
2022/07/14 10:43:25;;;;;;;3.00;1.40;;;33.80;37.10;;;;;;4969731;28;20113;-71
2022/07/14 10:45:53;;;;;;;3.20;1.33;;;33.80;36.90;;;;;;4932381;28;20448;-72
2022/07/14 10:48:31;;;;;;;6.97;1.60;;;33.90;36.90;;;;;;4958703;28;20042;-71
2022/07/14 10:51:19;;;;;;;6.00;1.60;;;33.90;36.20;;;;;;4953682;28;20071;-72
2022/07/14 10:54:11;;;;;;;4.22;1.40;;;34.00;36.20;;;;;;4954826;28;20039;-72
2022/07/14 10:56:38;;;;;;;2.72;1.63;;;34.10;36.10;;;;;;4943764;28;20859;-72
2022/07/14 10:59:25;;;;;;;3.42;1.05;;;34.30;36.60;;;;;;4937547;28;20042;-71
2022/07/14 11:04:58;;;;;;;2.28;1.50;;;34.60;35.60;;;;;;4931240;28;20042;-72
2022/07/14 11:08:01;;;;;;;4.10;1.50;;;34.80;35.50;;;;;;4951630;28;21396;-72
2022/07/14 11:10:27;;;;;;;3.40;1.50;;;35.10;35.20;;;;;;4928747;28;20042;-71
2022/07/14 11:13:04;;;;;;;4.70;1.80;;;35.30;35.60;;;;;;4943190;28;20088;-71
2022/07/14 11:15:39;;;;;;;4.45;2.10;;;35.40;34.70;;;;;;4952922;28;20051;-72
2022/07/14 11:18:21;;;;;;;3.95;1.85;;;35.50;34.90;;;;;;4951908;28;20049;-71
2022/07/14 11:21:06;;;;;;;6.22;1.52;;;35.70;34.50;;;;;;4941872;28;20141;-72
2022/07/14 11:23:36;;;;;;;1.73;1.50;;;35.80;34.70;;;;;;4947710;28;20046;-71
2022/07/14 11:26:07;;;;;;;2.92;1.42;;;36.00;34.40;;;;;;4921485;28;20043;-73
2022/07/14 11:28:43;;;;;;;3.92;1.38;;;36.20;34.20;;;;;;4949513;28;20154;-72
2022/07/14 11:31:21;;;;;;;7.40;1.63;;;36.40;33.70;;;;;;4958540;28;20035;-72
2022/07/14 11:36:32;;;;;;;4.07;1.55;;;36.70;33.60;;;;;;4962697;28;20056;-72
2022/07/14 11:39:20;;;;;;;2.88;1.10;;;36.80;33.40;;;;;;4960282;28;20889;-72
2022/07/14 11:42:07;;;;;;;3.75;1.08;;;36.90;32.50;;;;;;4941675;28;20049;-71
2022/07/14 11:44:33;;;;;;;3.97;1.05;;;37.00;32.40;;;;;;4932500;28;20066;-72
2022/07/14 11:46:59;;;;;;;7.78;1.55;;;37.10;32.70;;;;;;4945451;28;20125;-72
2022/07/14 11:49:25;;;;;;;1.83;1.30;;;37.20;32.30;;;;;;4935467;28;20051;-72
2022/07/14 11:51:54;;;;;;;8.65;1.75;;;37.20;32.00;;;;;;4952848;28;20042;-73
2022/07/14 11:54:21;;;;;;;9.13;1.65;;;37.20;31.90;;;;;;4963956;28;20046;-72
2022/07/14 11:56:47;;;;;;;3.95;1.40;;;37.20;31.80;;;;;;4944223;28;20094;-72
2022/07/14 11:59:17;;;;;;;2.95;1.20;;;37.20;31.80;;;;;;4940210;28;20124;-73
2022/07/14 12:01:43;;;;;;;2.57;1.40;;;37.30;31.60;;;;;;4955243;28;20156;-72
2022/07/14 12:04:11;;;;;;;1.65;1.20;;;37.40;31.60;;;;;;4940157;28;20110;-72
2022/07/14 12:06:38;;;;;;;5.07;1.30;;;37.50;31.60;;;;;;4906000;28;20370;-72
2022/07/14 12:09:03;;;;;;;4.07;1.92;;;37.50;31.40;;;;;;4928051;28;21296;-73
2022/07/14 12:11:29;;;;;;;10.68;1.50;;;37.50;31.30;;;;;;4957626;28;20063;-73
2022/07/14 12:13:55;;;;;;;14.52;2.15;;;37.60;31.30;;;;;;4936334;28;20055;-73
2022/07/14 12:16:21;;;;;;;3.58;1.20;;;37.60;31.10;;;;;;4973040;28;20038;-73
2022/07/14 12:18:46;;;;;;;4.38;1.15;;;37.70;31.00;;;;;;4955466;28;20126;-73
2022/07/14 12:21:12;;;;;;;9.13;1.20;;;37.80;30.60;;;;;;4949494;28;20126;-73
2022/07/14 12:23:54;;;;;;;13.63;1.65;;;37.80;30.30;;;;;;4931329;28;20039;-72
2022/07/14 12:26:20;;;;;;;6.45;1.40;;;37.80;30.40;;;;;;4961563;28;20043;-73
2022/07/14 12:28:54;;;;;;;10.02;1.33;;;37.80;30.00;;;;;;4962157;28;20106;-73
2022/07/14 12:31:19;;;;;;;4.82;1.00;;;37.80;29.80;;;;;;4940009;28;20196;-73
2022/07/14 12:33:46;;;;;;;3.80;1.20;;;37.70;29.90;;;;;;4969222;28;20085;-72
2022/07/14 12:36:13;;;;;;;4.53;1.20;;;37.60;29.80;;;;;;4956222;28;20110;-72
2022/07/14 12:38:39;;;;;;;1.35;1.08;;;37.60;29.90;;;;;;4942174;28;20042;-71
2022/07/14 12:41:05;;;;;;;5.72;1.25;;;37.50;29.90;;;;;;4924964;28;20118;-73
2022/07/14 12:43:49;;;;;;;4.05;1.50;;;37.40;29.90;;;;;;4950392;28;20126;-72
2022/07/14 12:46:17;;;;;;;1.67;1.02;;;37.30;29.90;;;;;;4960310;28;20062;-72
2022/07/14 12:48:52;;;;;;;4.03;1.15;;;37.30;30.00;;;;;;4960544;28;20500;-73
2022/07/14 12:51:21;;;;;;;3.25;1.38;;;37.30;30.00;;;;;;4967136;28;20034;-72
2022/07/14 12:53:59;;;;;;;3.35;1.30;;;37.20;30.00;;;;;;4971770;28;20227;-73
2022/07/14 12:56:29;;;;;;;2.70;1.17;;;37.10;29.90;;;;;;4945565;28;20031;-73
2022/07/14 12:58:56;;;;;;;2.65;1.38;;;37.10;30.10;;;;;;4952444;28;20026;-71
2022/07/14 13:01:24;;;;;;;1.35;1.20;;;37.00;30.00;;;;;;4943337;28;20770;-73
2022/07/14 13:03:54;;;;;;;1.73;1.50;;;37.00;30.10;;;;;;4961996;28;20072;-73
2022/07/14 13:06:19;;;;;;;2.80;1.40;;;36.90;30.00;;;;;;4975800;28;20070;-73